Flight Track Log - Related Links

Times and Time Zones

All times are in EST time to prevent confusion due to time zone crossing. See the EGF3796 flight status page for this flight to view local times or setup timezone preferences in your user account.

Time Position Orientation Groundspeed Altitude Reporting Facility
EST Latitude Longitude Course Direction KTS MPH feet Rate Location/Type
Sun 03:56:00 PM 30.6485 -91.4165 319° Northwest  Level Estimated
Sun 03:56:18 PM 30.4283 -91.2142 204° Southwest 191 220 5,800  Level Houston Center
Sun 03:57:00 PM 30.6869 -91.5056 323° Northwest  Level Estimated
Sun 03:57:21 PM 30.3781 -91.2406 204° Southwest 196 226 8,600  Level Houston Center
Sun 03:58:00 PM 30.7702 -91.5287 347° North  Level FlightAware Approximate
Sun 03:58:23 PM 30.3228 -91.2617 198° South 204 235 10,800  Level Houston Center
Sun 03:59:00 PM 30.8076 -91.6184 289° West  Level Estimated
Sun 03:59:25 PM 30.2608 -91.2833 197° South 227 261 12,800  Level Houston Center
Sun 04:00:00 PM 30.8709 -91.6944 314° West  Level FlightAware Approximate
Sun 04:00:27 PM 30.2414 -91.3600 254° West 217 250 15,400  Level Houston Center
Sun 04:01:29 PM 30.2883 -91.4153 315° West 239 275 17,500 1,597 Climbing Houston Center
Sun 04:02:31 PM 30.3314 -91.4814 307° West 256 295 18,700 1,113 Climbing Houston Center
Sun 04:03:33 PM 30.3786 -91.5592 305° West 291 335 19,800 1,008 Climbing Houston Center
Sun 04:04:36 PM 30.4314 -91.6450 306° West 321 369 20,800 864 Climbing Houston Center
Sun 04:05:38 PM 30.4967 -91.7483 306° West 343 395 21,600 581 Climbing Houston Center
Sun 04:06:40 PM 30.5561 -91.8436 306° West 359 413 22,000 194 Climbing Houston Center
Sun 04:07:42 PM 30.6169 -91.9408 306° West 371 427 22,000  Level Houston Center
Sun 04:08:44 PM 30.6772 -92.0386 306° West 370 426 22,000  Level Houston Center
Sun 04:09:46 PM 30.7367 -92.1361 305° West 370 426 22,000  Level Houston Center
Sun 04:10:48 PM 30.8058 -92.2500 305° West 361 415 22,000  Level Houston Center
Sun 04:11:51 PM 30.8628 -92.3417 306° West 351 404 22,000  Level Houston Center
Sun 04:12:53 PM 30.9194 -92.4344 305° West 351 404 22,000  Level Houston Center
Sun 04:13:55 PM 30.9747 -92.5250 305° West 345 397 22,000  Level Houston Center
Sun 04:14:57 PM 31.0297 -92.6167 305° West 342 394 22,000  Level Houston Center
Sun 04:15:59 PM 31.0856 -92.7081 306° West 342 394 22,000  Level Houston Center
Sun 04:17:01 PM 31.1394 -92.7986 305° West 338 389 22,000  Level Houston Center
Sun 04:18:03 PM 31.2050 -92.9058 306° West 337 388 22,000  Level Houston Center
Sun 04:19:06 PM 31.2586 -92.9950 305° West 334 384 22,000  Level Houston Center
Sun 04:20:08 PM 31.3097 -93.0819 305° West 327 376 22,000  Level Houston Center
Sun 04:21:10 PM 31.3631 -93.1708 305° West 331 381 22,000  Level Houston Center
Sun 04:22:12 PM 31.4156 -93.2586 305° West 329 379 22,000  Level Houston Center
Sun 04:23:14 PM 31.4672 -93.3469 304° West 328 377 22,000  Level Houston Center
Sun 04:24:16 PM 31.5197 -93.4331 306° West 325 374 22,000  Level Houston Center
Sun 04:25:18 PM 31.5808 -93.5375 305° West 323 372 22,000  Level Houston Center
Sun 04:26:20 PM 31.6328 -93.6247 305° West 321 369 22,000  Level Houston Center
Sun 04:27:23 PM 31.6625 -93.7178 291° West 303 349 22,000  Level Houston Center
Sun 04:28:25 PM 31.6833 -93.8128 284° West 301 346 22,000  Level Houston Center
Sun 04:29:27 PM 31.7036 -93.9081 284° West 301 346 22,000  Level Houston Center
Sun 04:30:29 PM 31.7278 -94.0219 284° West 300 345 22,000  Level Houston Center
Sun 04:31:31 PM 31.7492 -94.1158 285° West 299 344 22,000  Level Houston Center
Sun 04:32:33 PM 31.7692 -94.2089 284° West 295 339 22,000  Level Houston Center
Sun 04:33:35 PM 31.7892 -94.3022 284° West 295 339 22,000  Level Houston Center
Sun 04:34:37 PM 31.8086 -94.3944 284° West 293 337 22,000  Level Houston Center
Sun 04:35:40 PM 31.8294 -94.4856 285° West 291 335 22,000  Level Houston Center
Sun 04:36:42 PM 31.8525 -94.5969 284° West 293 337 22,000  Level Houston Center
Sun 04:37:44 PM 31.8722 -94.6903 284° West 294 338 22,000  Level Houston Center
Sun 04:38:46 PM 31.8919 -94.7822 284° West 292 336 22,000  Level Houston Center
Sun 04:40:17 PM 31.9228 -94.9308 284° West 290 334 22,000  Level Fort Worth Center
Sun 04:41:19 PM 31.9425 -95.0228 284° West 291 335 22,000  Level Fort Worth Center
Sun 04:42:21 PM 31.9606 -95.1117 283° West 284 327 22,000  Level Fort Worth Center
Sun 04:43:23 PM 31.9564 -95.2011 267° West 295 339 22,000  Level Fort Worth Center
Sun 04:44:25 PM 31.8869 -95.2561 214° Southwest 310 357 22,000  Level Fort Worth Center
Sun 04:45:27 PM 31.8608 -95.3417 250° West 279 321 22,000  Level Fort Worth Center
Sun 04:46:29 PM 31.8661 -95.4497 273° West 288 331 22,000  Level Fort Worth Center
Sun 04:47:31 PM 31.9003 -95.5381 295° West 295 339 22,000  Level Fort Worth Center
Sun 04:48:33 PM 31.9372 -95.6242 297° West 297 342 22,000  Level Fort Worth Center
Sun 04:49:35 PM 31.9778 -95.7214 296° West 297 342 22,000  Level Fort Worth Center
Sun 04:50:38 PM 32.0147 -95.8086 297° West 297 342 22,000 -48 Level Fort Worth Center
Sun 04:51:40 PM 32.0517 -95.8967 296° West 299 344 21,900 -242 Descending Fort Worth Center
Sun 04:52:42 PM 32.0889 -95.9864 296° West 304 350 21,500 -532 Descending Fort Worth Center
Sun 04:53:44 PM 32.1281 -96.0781 297° West 312 359 20,800 -823 Descending Fort Worth Center
Sun 04:54:46 PM 32.1675 -96.1733 296° West 322 371 19,800 -1,742 Descending Fort Worth Center
Sun 04:55:48 PM 32.2303 -96.2722 307° West 323 372 17,200 -2,903 Descending Fort Worth Center
Sun 04:56:50 PM 32.2994 -96.3508 316° Northwest 319 367 13,800 -2,855 Descending Fort Worth Center
Sun 04:57:52 PM 32.3592 -96.4222 315° West 304 350 11,300 -1,984 Descending Fort Worth Center
Sun 04:58:54 PM 32.4133 -96.4850 316° Northwest 274 315 9,700 -1,306 Descending Fort Worth Center
Sun 04:59:56 PM 32.4628 -96.5450 314° West 235 270 8,600 -968 Descending Fort Worth Center
Sun 05:00:58 PM 32.5061 -96.5967 315° West 222 255 7,700 -677 Descending Fort Worth Center
Sun 05:02:00 PM 32.5525 -96.6522 315° West 222 255 7,200 -384 Descending Fort Worth Center
Sun 05:03:03 PM 32.6047 -96.6989 323° Northwest 235 270 6,900 -367 Descending Fort Worth Center
Sun 05:03:38 PM 32.6333 -96.7167 332° Northwest 230 265 6,600 -563 Descending Dallas / Fort Worth TRACON
Sun 05:04:39 PM 32.6833 -96.7667 320° Northwest 219 252 6,000 -595 Descending Dallas / Fort Worth TRACON
Sun 05:05:39 PM 32.7333 -96.8000 331° Northwest 181 208 5,400 -655 Descending Dallas / Fort Worth TRACON
Sun 05:06:38 PM 32.7667 -96.8500 308° West 187 215 4,700 -800 Descending Dallas / Fort Worth TRACON
Sun 05:07:39 PM 32.8000 -96.8833 320° Northwest 184 212 3,800 -1,048 Descending Dallas / Fort Worth TRACON
Sun 05:08:44 PM 32.8333 -96.9333 308° West 169 194 2,500 -1,145 Descending Dallas / Fort Worth TRACON
Sun 05:09:50 PM 32.8667 -96.9667 320° Northwest 150 173 1,300 -1,091 Descending Dallas / Fort Worth TRACON

Login

Don't have an account? Register now (free) for customized features, flight alerts, and more!